Terminal Aerodrome Forecast
Issued by NWS Albany, NY

Home | Current Version | Previous Version | Text Only | Print | Product List | Glossary On
Versions: 1 2 3 4 5 6 7 8 9 10 11 12 13 14 15 16 17 18 19 20
000
FTUS41 KALY 292300
TAFPOU
TAF
KPOU 292321Z 3000/3024 VRB05KT P6SM SCT050 BKN080
     FM300600 00000KT P6SM VCFG SCT050 SCT080
     FM301300 22005KT P6SM SCT050
     FM301800 24007KT P6SM BKN060=

USA.gov is the U.S. government's official web portal to all federal, state and local government web resources and services.